sensor_id;sensor_type;location;lat;lon;timestamp;P1;durP1;ratioP1;P2;durP2;ratioP2
6642;SDS011;3357;48.050;7.800;2023-06-10T00:02:08;4.03;;;3.63;;
6642;SDS011;3357;48.050;7.800;2023-06-10T00:04:33;3.53;;;3.20;;
6642;SDS011;3357;48.050;7.800;2023-06-10T00:06:59;4.73;;;3.93;;
6642;SDS011;3357;48.050;7.800;2023-06-10T00:09:25;3.73;;;3.43;;
6642;SDS011;3357;48.050;7.800;2023-06-10T00:11:54;4.03;;;3.67;;
6642;SDS011;3357;48.050;7.800;2023-06-10T00:14:19;3.83;;;3.50;;
6642;SDS011;3357;48.050;7.800;2023-06-10T00:16:44;3.60;;;3.30;;
6642;SDS011;3357;48.050;7.800;2023-06-10T00:19:10;3.67;;;3.37;;
6642;SDS011;3357;48.050;7.800;2023-06-10T00:21:38;4.53;;;3.40;;
6642;SDS011;3357;48.050;7.800;2023-06-10T00:24:05;5.43;;;3.67;;
6642;SDS011;3357;48.050;7.800;2023-06-10T00:26:39;7.53;;;3.90;;
6642;SDS011;3357;48.050;7.800;2023-06-10T00:29:05;7.03;;;3.77;;
6642;SDS011;3357;48.050;7.800;2023-06-10T00:31:30;4.80;;;3.90;;
6642;SDS011;3357;48.050;7.800;2023-06-10T00:33:55;3.90;;;3.60;;
6642;SDS011;3357;48.050;7.800;2023-06-10T00:36:21;9.33;;;4.20;;
6642;SDS011;3357;48.050;7.800;2023-06-10T00:38:46;3.90;;;3.60;;
6642;SDS011;3357;48.050;7.800;2023-06-10T00:41:11;4.63;;;3.80;;
6642;SDS011;3357;48.050;7.800;2023-06-10T00:43:36;5.63;;;3.30;;
6642;SDS011;3357;48.050;7.800;2023-06-10T00:46:02;3.93;;;3.27;;
6642;SDS011;3357;48.050;7.800;2023-06-10T00:48:27;3.80;;;3.50;;
6642;SDS011;3357;48.050;7.800;2023-06-10T00:50:52;4.17;;;3.77;;
6642;SDS011;3357;48.050;7.800;2023-06-10T00:53:18;3.87;;;3.60;;
6642;SDS011;3357;48.050;7.800;2023-06-10T00:55:44;4.17;;;3.53;;
6642;SDS011;3357;48.050;7.800;2023-06-10T00:58:09;4.50;;;3.80;;
6642;SDS011;3357;48.050;7.800;2023-06-10T01:00:35;5.13;;;3.60;;
6642;SDS011;3357;48.050;7.800;2023-06-10T01:03:00;3.63;;;3.33;;
6642;SDS011;3357;48.050;7.800;2023-06-10T01:05:26;3.30;;;3.00;;
6642;SDS011;3357;48.050;7.800;2023-06-10T01:10:50;3.93;;;3.63;;
6642;SDS011;3357;48.050;7.800;2023-06-10T01:13:18;5.00;;;4.47;;
6642;SDS011;3357;48.050;7.800;2023-06-10T01:15:45;4.90;;;4.43;;
6642;SDS011;3357;48.050;7.800;2023-06-10T01:18:10;5.40;;;3.97;;
6642;SDS011;3357;48.050;7.800;2023-06-10T01:20:40;3.60;;;3.30;;
6642;SDS011;3357;48.050;7.800;2023-06-10T01:23:06;4.10;;;3.67;;
6642;SDS011;3357;48.050;7.800;2023-06-10T01:25:32;3.33;;;3.13;;
6642;SDS011;3357;48.050;7.800;2023-06-10T01:28:10;3.60;;;3.30;;
6642;SDS011;3357;48.050;7.800;2023-06-10T01:30:55;4.30;;;4.00;;
6642;SDS011;3357;48.050;7.800;2023-06-10T01:33:37;4.67;;;4.13;;
6642;SDS011;3357;48.050;7.800;2023-06-10T01:36:04;4.10;;;3.80;;
6642;SDS011;3357;48.050;7.800;2023-06-10T01:38:33;4.30;;;3.90;;
6642;SDS011;3357;48.050;7.800;2023-06-10T01:41:02;9.13;;;4.40;;
6642;SDS011;3357;48.050;7.800;2023-06-10T01:43:28;6.30;;;3.80;;
6642;SDS011;3357;48.050;7.800;2023-06-10T01:45:53;4.67;;;4.17;;
6642;SDS011;3357;48.050;7.800;2023-06-10T01:48:18;4.20;;;3.73;;
6642;SDS011;3357;48.050;7.800;2023-06-10T01:50:44;4.80;;;3.80;;
6642;SDS011;3357;48.050;7.800;2023-06-10T01:53:09;7.03;;;4.00;;
6642;SDS011;3357;48.050;7.800;2023-06-10T01:55:34;4.80;;;4.30;;
6642;SDS011;3357;48.050;7.800;2023-06-10T01:58:00;3.80;;;3.50;;
6642;SDS011;3357;48.050;7.800;2023-06-10T02:00:25;4.50;;;4.10;;
6642;SDS011;3357;48.050;7.800;2023-06-10T02:02:50;8.03;;;4.20;;
6642;SDS011;3357;48.050;7.800;2023-06-10T02:05:15;5.17;;;4.20;;
6642;SDS011;3357;48.050;7.800;2023-06-10T02:07:41;5.07;;;4.63;;
6642;SDS011;3357;48.050;7.800;2023-06-10T02:10:06;11.30;;;4.43;;
6642;SDS011;3357;48.050;7.800;2023-06-10T02:12:32;4.80;;;4.07;;
6642;SDS011;3357;48.050;7.800;2023-06-10T02:14:57;8.33;;;4.80;;
6642;SDS011;3357;48.050;7.800;2023-06-10T02:17:22;4.80;;;4.33;;
6642;SDS011;3357;48.050;7.800;2023-06-10T02:19:48;5.87;;;4.77;;
6642;SDS011;3357;48.050;7.800;2023-06-10T02:22:17;5.10;;;4.60;;
6642;SDS011;3357;48.050;7.800;2023-06-10T02:24:46;7.90;;;4.80;;
6642;SDS011;3357;48.050;7.800;2023-06-10T02:27:11;4.60;;;4.20;;
6642;SDS011;3357;48.050;7.800;2023-06-10T02:29:36;4.27;;;3.87;;
6642;SDS011;3357;48.050;7.800;2023-06-10T02:32:02;4.97;;;4.40;;
6642;SDS011;3357;48.050;7.800;2023-06-10T02:34:27;5.00;;;4.60;;
6642;SDS011;3357;48.050;7.800;2023-06-10T02:36:53;7.63;;;4.40;;
6642;SDS011;3357;48.050;7.800;2023-06-10T02:39:18;4.50;;;4.20;;
6642;SDS011;3357;48.050;7.800;2023-06-10T02:41:44;4.90;;;4.50;;
6642;SDS011;3357;48.050;7.800;2023-06-10T02:44:09;6.07;;;4.80;;
6642;SDS011;3357;48.050;7.800;2023-06-10T02:46:34;6.20;;;4.47;;
6642;SDS011;3357;48.050;7.800;2023-06-10T02:49:00;5.33;;;4.83;;
6642;SDS011;3357;48.050;7.800;2023-06-10T02:51:26;4.87;;;4.47;;
6642;SDS011;3357;48.050;7.800;2023-06-10T02:53:52;5.17;;;4.50;;
6642;SDS011;3357;48.050;7.800;2023-06-10T02:56:17;4.63;;;4.23;;
6642;SDS011;3357;48.050;7.800;2023-06-10T02:58:42;5.93;;;5.20;;
6642;SDS011;3357;48.050;7.800;2023-06-10T03:01:07;5.13;;;4.63;;
6642;SDS011;3357;48.050;7.800;2023-06-10T03:03:35;5.73;;;5.27;;
6642;SDS011;3357;48.050;7.800;2023-06-10T03:06:01;5.13;;;4.63;;
6642;SDS011;3357;48.050;7.800;2023-06-10T03:08:27;7.30;;;4.93;;
6642;SDS011;3357;48.050;7.800;2023-06-10T03:10:53;4.60;;;4.20;;
6642;SDS011;3357;48.050;7.800;2023-06-10T03:13:18;4.73;;;4.33;;
6642;SDS011;3357;48.050;7.800;2023-06-10T03:15:43;4.93;;;4.50;;
6642;SDS011;3357;48.050;7.800;2023-06-10T03:18:09;5.87;;;5.10;;
6642;SDS011;3357;48.050;7.800;2023-06-10T03:20:34;4.93;;;4.53;;
6642;SDS011;3357;48.050;7.800;2023-06-10T03:23:05;6.90;;;4.50;;
6642;SDS011;3357;48.050;7.800;2023-06-10T03:25:33;5.13;;;4.73;;
6642;SDS011;3357;48.050;7.800;2023-06-10T03:27:58;8.93;;;5.23;;
6642;SDS011;3357;48.050;7.800;2023-06-10T03:30:23;5.23;;;4.53;;
6642;SDS011;3357;48.050;7.800;2023-06-10T03:32:48;4.77;;;4.37;;
6642;SDS011;3357;48.050;7.800;2023-06-10T03:35:14;5.40;;;4.70;;
6642;SDS011;3357;48.050;7.800;2023-06-10T03:37:39;5.20;;;4.40;;
6642;SDS011;3357;48.050;7.800;2023-06-10T03:40:05;9.80;;;4.70;;
6642;SDS011;3357;48.050;7.800;2023-06-10T03:42:31;4.77;;;4.37;;
6642;SDS011;3357;48.050;7.800;2023-06-10T03:44:56;4.50;;;4.10;;
6642;SDS011;3357;48.050;7.800;2023-06-10T03:47:21;7.60;;;4.20;;
6642;SDS011;3357;48.050;7.800;2023-06-10T03:49:46;4.50;;;4.17;;
6642;SDS011;3357;48.050;7.800;2023-06-10T03:52:12;7.57;;;5.00;;
6642;SDS011;3357;48.050;7.800;2023-06-10T03:54:37;4.87;;;4.37;;
6642;SDS011;3357;48.050;7.800;2023-06-10T03:57:02;6.80;;;4.50;;
6642;SDS011;3357;48.050;7.800;2023-06-10T03:59:28;5.43;;;4.93;;
6642;SDS011;3357;48.050;7.800;2023-06-10T04:01:53;5.30;;;4.50;;
6642;SDS011;3357;48.050;7.800;2023-06-10T04:04:19;5.57;;;4.10;;
6642;SDS011;3357;48.050;7.800;2023-06-10T04:06:44;5.83;;;5.30;;
6642;SDS011;3357;48.050;7.800;2023-06-10T04:09:10;5.93;;;5.00;;
6642;SDS011;3357;48.050;7.800;2023-06-10T04:11:36;7.20;;;4.97;;
6642;SDS011;3357;48.050;7.800;2023-06-10T04:14:01;5.63;;;5.10;;
6642;SDS011;3357;48.050;7.800;2023-06-10T04:16:27;5.30;;;4.03;;
6642;SDS011;3357;48.050;7.800;2023-06-10T04:18:52;5.07;;;4.53;;
6642;SDS011;3357;48.050;7.800;2023-06-10T04:21:18;4.80;;;4.30;;
6642;SDS011;3357;48.050;7.800;2023-06-10T04:23:43;4.40;;;4.00;;
6642;SDS011;3357;48.050;7.800;2023-06-10T04:26:08;7.13;;;4.83;;
6642;SDS011;3357;48.050;7.800;2023-06-10T04:28:33;4.73;;;4.07;;
6642;SDS011;3357;48.050;7.800;2023-06-10T04:30:59;4.60;;;4.20;;
6642;SDS011;3357;48.050;7.800;2023-06-10T04:33:24;6.23;;;5.10;;
6642;SDS011;3357;48.050;7.800;2023-06-10T04:35:50;5.20;;;4.70;;
6642;SDS011;3357;48.050;7.800;2023-06-10T04:38:15;5.23;;;4.73;;
6642;SDS011;3357;48.050;7.800;2023-06-10T04:40:40;6.30;;;4.67;;
6642;SDS011;3357;48.050;7.800;2023-06-10T04:43:06;4.83;;;4.33;;
6642;SDS011;3357;48.050;7.800;2023-06-10T04:45:31;5.17;;;4.67;;
6642;SDS011;3357;48.050;7.800;2023-06-10T04:47:56;11.83;;;4.83;;
6642;SDS011;3357;48.050;7.800;2023-06-10T04:50:23;4.77;;;4.10;;
6642;SDS011;3357;48.050;7.800;2023-06-10T04:52:48;4.27;;;3.93;;
6642;SDS011;3357;48.050;7.800;2023-06-10T04:55:13;5.73;;;4.90;;
6642;SDS011;3357;48.050;7.800;2023-06-10T04:57:38;4.23;;;3.93;;
6642;SDS011;3357;48.050;7.800;2023-06-10T05:00:04;5.23;;;4.70;;
6642;SDS011;3357;48.050;7.800;2023-06-10T05:02:31;5.43;;;4.70;;
6642;SDS011;3357;48.050;7.800;2023-06-10T05:04:56;5.83;;;5.00;;
6642;SDS011;3357;48.050;7.800;2023-06-10T05:07:22;7.17;;;4.60;;
6642;SDS011;3357;48.050;7.800;2023-06-10T05:09:48;5.30;;;4.83;;
6642;SDS011;3357;48.050;7.800;2023-06-10T05:12:13;5.23;;;4.53;;
6642;SDS011;3357;48.050;7.800;2023-06-10T05:14:38;7.60;;;5.70;;
6642;SDS011;3357;48.050;7.800;2023-06-10T05:17:04;7.73;;;5.73;;
6642;SDS011;3357;48.050;7.800;2023-06-10T05:19:31;7.23;;;5.23;;
6642;SDS011;3357;48.050;7.800;2023-06-10T05:21:56;5.67;;;5.10;;
6642;SDS011;3357;48.050;7.800;2023-06-10T05:24:22;9.10;;;4.93;;
6642;SDS011;3357;48.050;7.800;2023-06-10T05:26:48;5.57;;;5.07;;
6642;SDS011;3357;48.050;7.800;2023-06-10T05:29:13;8.43;;;5.17;;
6642;SDS011;3357;48.050;7.800;2023-06-10T05:31:40;6.03;;;5.43;;
6642;SDS011;3357;48.050;7.800;2023-06-10T05:34:06;5.83;;;5.33;;
6642;SDS011;3357;48.050;7.800;2023-06-10T05:36:31;7.30;;;5.73;;
6642;SDS011;3357;48.050;7.800;2023-06-10T05:38:57;5.77;;;4.90;;
6642;SDS011;3357;48.050;7.800;2023-06-10T05:41:22;5.37;;;4.83;;
6642;SDS011;3357;48.050;7.800;2023-06-10T05:43:48;9.57;;;5.30;;
6642;SDS011;3357;48.050;7.800;2023-06-10T05:46:13;6.40;;;5.37;;
6642;SDS011;3357;48.050;7.800;2023-06-10T05:48:38;6.80;;;4.60;;
6642;SDS011;3357;48.050;7.800;2023-06-10T05:51:04;7.93;;;4.80;;
6642;SDS011;3357;48.050;7.800;2023-06-10T05:53:29;5.33;;;4.83;;
6642;SDS011;3357;48.050;7.800;2023-06-10T05:55:54;5.97;;;5.20;;
6642;SDS011;3357;48.050;7.800;2023-06-10T05:58:22;5.90;;;5.20;;
6642;SDS011;3357;48.050;7.800;2023-06-10T06:00:48;5.40;;;4.47;;
6642;SDS011;3357;48.050;7.800;2023-06-10T06:03:13;4.57;;;4.17;;
6642;SDS011;3357;48.050;7.800;2023-06-10T06:05:38;6.30;;;5.53;;
6642;SDS011;3357;48.050;7.800;2023-06-10T06:08:04;4.90;;;4.40;;
6642;SDS011;3357;48.050;7.800;2023-06-10T06:10:30;6.53;;;4.90;;
6642;SDS011;3357;48.050;7.800;2023-06-10T06:12:55;8.57;;;4.47;;
6642;SDS011;3357;48.050;7.800;2023-06-10T06:15:20;5.30;;;4.80;;
6642;SDS011;3357;48.050;7.800;2023-06-10T06:17:46;4.90;;;4.43;;
6642;SDS011;3357;48.050;7.800;2023-06-10T06:20:11;7.63;;;3.97;;
6642;SDS011;3357;48.050;7.800;2023-06-10T06:22:36;7.57;;;4.07;;
6642;SDS011;3357;48.050;7.800;2023-06-10T06:25:02;4.10;;;3.70;;
6642;SDS011;3357;48.050;7.800;2023-06-10T06:27:27;6.70;;;4.63;;
6642;SDS011;3357;48.050;7.800;2023-06-10T06:29:53;5.60;;;4.30;;
6642;SDS011;3357;48.050;7.800;2023-06-10T06:32:18;4.07;;;3.67;;
6642;SDS011;3357;48.050;7.800;2023-06-10T06:34:44;4.37;;;3.90;;
6642;SDS011;3357;48.050;7.800;2023-06-10T06:37:09;4.60;;;4.20;;
6642;SDS011;3357;48.050;7.800;2023-06-10T06:39:34;4.97;;;4.17;;
6642;SDS011;3357;48.050;7.800;2023-06-10T06:42:00;5.03;;;4.63;;
6642;SDS011;3357;48.050;7.800;2023-06-10T06:44:25;4.77;;;4.23;;
6642;SDS011;3357;48.050;7.800;2023-06-10T06:46:50;5.20;;;4.70;;
6642;SDS011;3357;48.050;7.800;2023-06-10T06:49:15;5.17;;;4.50;;
6642;SDS011;3357;48.050;7.800;2023-06-10T06:51:41;6.03;;;4.67;;
6642;SDS011;3357;48.050;7.800;2023-06-10T06:54:06;5.10;;;4.37;;
6642;SDS011;3357;48.050;7.800;2023-06-10T06:56:31;7.00;;;4.50;;
6642;SDS011;3357;48.050;7.800;2023-06-10T06:58:56;4.90;;;4.50;;
6642;SDS011;3357;48.050;7.800;2023-06-10T07:01:22;4.33;;;3.63;;
6642;SDS011;3357;48.050;7.800;2023-06-10T07:03:47;6.83;;;4.53;;
6642;SDS011;3357;48.050;7.800;2023-06-10T07:06:12;5.30;;;4.20;;
6642;SDS011;3357;48.050;7.800;2023-06-10T07:08:38;5.00;;;4.60;;
6642;SDS011;3357;48.050;7.800;2023-06-10T07:11:03;8.27;;;4.40;;
6642;SDS011;3357;48.050;7.800;2023-06-10T07:13:28;5.10;;;4.30;;
6642;SDS011;3357;48.050;7.800;2023-06-10T07:15:54;4.60;;;4.20;;
6642;SDS011;3357;48.050;7.800;2023-06-10T07:18:19;4.27;;;3.90;;
6642;SDS011;3357;48.050;7.800;2023-06-10T07:20:44;5.37;;;4.77;;
6642;SDS011;3357;48.050;7.800;2023-06-10T07:23:09;4.83;;;4.53;;
6642;SDS011;3357;48.050;7.800;2023-06-10T07:25:35;5.10;;;4.60;;
6642;SDS011;3357;48.050;7.800;2023-06-10T07:28:00;5.13;;;4.63;;
6642;SDS011;3357;48.050;7.800;2023-06-10T07:30:25;4.27;;;3.97;;
6642;SDS011;3357;48.050;7.800;2023-06-10T07:32:51;7.10;;;4.83;;
6642;SDS011;3357;48.050;7.800;2023-06-10T07:35:16;7.00;;;4.80;;
6642;SDS011;3357;48.050;7.800;2023-06-10T07:37:42;4.50;;;4.10;;
6642;SDS011;3357;48.050;7.800;2023-06-10T07:40:07;7.23;;;4.50;;
6642;SDS011;3357;48.050;7.800;2023-06-10T07:42:34;4.30;;;3.90;;
6642;SDS011;3357;48.050;7.800;2023-06-10T07:45:00;4.57;;;3.90;;
6642;SDS011;3357;48.050;7.800;2023-06-10T07:47:25;5.43;;;5.00;;
6642;SDS011;3357;48.050;7.800;2023-06-10T07:49:51;8.87;;;4.47;;
6642;SDS011;3357;48.050;7.800;2023-06-10T07:52:16;4.67;;;4.27;;
6642;SDS011;3357;48.050;7.800;2023-06-10T07:54:41;6.50;;;4.00;;
6642;SDS011;3357;48.050;7.800;2023-06-10T07:57:07;5.13;;;4.30;;
6642;SDS011;3357;48.050;7.800;2023-06-10T07:59:32;4.60;;;4.23;;
6642;SDS011;3357;48.050;7.800;2023-06-10T08:01:58;4.50;;;4.20;;
6642;SDS011;3357;48.050;7.800;2023-06-10T08:04:23;7.27;;;5.00;;
6642;SDS011;3357;48.050;7.800;2023-06-10T08:06:48;5.93;;;4.70;;
6642;SDS011;3357;48.050;7.800;2023-06-10T08:09:14;6.37;;;4.57;;
6642;SDS011;3357;48.050;7.800;2023-06-10T08:11:40;5.27;;;4.87;;
6642;SDS011;3357;48.050;7.800;2023-06-10T08:14:05;5.60;;;5.10;;
6642;SDS011;3357;48.050;7.800;2023-06-10T08:16:31;6.07;;;5.13;;
6642;SDS011;3357;48.050;7.800;2023-06-10T08:18:56;6.63;;;4.87;;
6642;SDS011;3357;48.050;7.800;2023-06-10T08:21:21;5.33;;;4.93;;
6642;SDS011;3357;48.050;7.800;2023-06-10T08:23:47;5.60;;;4.97;;
6642;SDS011;3357;48.050;7.800;2023-06-10T08:26:12;8.07;;;4.57;;
6642;SDS011;3357;48.050;7.800;2023-06-10T08:28:37;6.40;;;5.10;;
6642;SDS011;3357;48.050;7.800;2023-06-10T08:31:02;5.10;;;4.70;;
6642;SDS011;3357;48.050;7.800;2023-06-10T08:33:28;5.23;;;4.80;;
6642;SDS011;3357;48.050;7.800;2023-06-10T08:35:53;5.63;;;5.03;;
6642;SDS011;3357;48.050;7.800;2023-06-10T08:38:18;6.63;;;4.80;;
6642;SDS011;3357;48.050;7.800;2023-06-10T08:40:44;5.50;;;5.00;;
6642;SDS011;3357;48.050;7.800;2023-06-10T08:45:59;5.87;;;5.37;;
6642;SDS011;3357;48.050;7.800;2023-06-10T08:48:26;5.30;;;4.90;;
6642;SDS011;3357;48.050;7.800;2023-06-10T08:50:59;7.60;;;5.40;;
6642;SDS011;3357;48.050;7.800;2023-06-10T08:53:24;5.93;;;5.30;;
6642;SDS011;3357;48.050;7.800;2023-06-10T08:55:51;6.40;;;5.80;;
6642;SDS011;3357;48.050;7.800;2023-06-10T08:58:17;5.90;;;5.40;;
6642;SDS011;3357;48.050;7.800;2023-06-10T09:00:43;5.60;;;5.20;;
6642;SDS011;3357;48.050;7.800;2023-06-10T09:03:08;6.60;;;5.53;;
6642;SDS011;3357;48.050;7.800;2023-06-10T09:05:34;9.10;;;6.07;;
6642;SDS011;3357;48.050;7.800;2023-06-10T09:08:01;6.90;;;6.00;;
6642;SDS011;3357;48.050;7.800;2023-06-10T09:10:27;6.90;;;6.30;;
6642;SDS011;3357;48.050;7.800;2023-06-10T09:12:52;7.00;;;6.40;;
6642;SDS011;3357;48.050;7.800;2023-06-10T09:15:18;8.47;;;6.70;;
6642;SDS011;3357;48.050;7.800;2023-06-10T09:17:43;6.50;;;5.90;;
6642;SDS011;3357;48.050;7.800;2023-06-10T09:20:10;6.87;;;6.20;;
6642;SDS011;3357;48.050;7.800;2023-06-10T09:22:35;6.37;;;5.77;;
6642;SDS011;3357;48.050;7.800;2023-06-10T09:25:08;6.60;;;5.93;;
6642;SDS011;3357;48.050;7.800;2023-06-10T09:27:51;7.10;;;6.27;;
6642;SDS011;3357;48.050;7.800;2023-06-10T09:30:29;6.23;;;5.73;;
6642;SDS011;3357;48.050;7.800;2023-06-10T09:32:56;6.37;;;5.80;;
6642;SDS011;3357;48.050;7.800;2023-06-10T09:35:25;9.50;;;6.37;;
6642;SDS011;3357;48.050;7.800;2023-06-10T09:37:52;7.13;;;6.43;;
6642;SDS011;3357;48.050;7.800;2023-06-10T09:40:18;7.27;;;5.80;;
6642;SDS011;3357;48.050;7.800;2023-06-10T09:42:44;6.20;;;5.70;;
6642;SDS011;3357;48.050;7.800;2023-06-10T09:45:09;5.80;;;5.30;;
6642;SDS011;3357;48.050;7.800;2023-06-10T09:47:35;6.97;;;6.33;;
6642;SDS011;3357;48.050;7.800;2023-06-10T09:50:00;7.07;;;6.40;;
6642;SDS011;3357;48.050;7.800;2023-06-10T09:52:27;7.13;;;5.63;;
6642;SDS011;3357;48.050;7.800;2023-06-10T09:54:53;7.33;;;6.70;;
6642;SDS011;3357;48.050;7.800;2023-06-10T09:57:19;6.67;;;6.07;;
6642;SDS011;3357;48.050;7.800;2023-06-10T09:59:45;7.40;;;6.60;;
6642;SDS011;3357;48.050;7.800;2023-06-10T10:02:17;8.63;;;6.57;;
6642;SDS011;3357;48.050;7.800;2023-06-10T10:04:42;9.10;;;6.50;;
6642;SDS011;3357;48.050;7.800;2023-06-10T10:07:09;6.87;;;6.27;;
6642;SDS011;3357;48.050;7.800;2023-06-10T10:09:39;6.90;;;6.30;;
6642;SDS011;3357;48.050;7.800;2023-06-10T10:12:13;7.30;;;6.60;;
6642;SDS011;3357;48.050;7.800;2023-06-10T10:14:42;7.90;;;6.57;;
6642;SDS011;3357;48.050;7.800;2023-06-10T10:17:10;6.50;;;5.90;;
6642;SDS011;3357;48.050;7.800;2023-06-10T10:19:43;8.37;;;6.53;;
6642;SDS011;3357;48.050;7.800;2023-06-10T10:22:26;6.50;;;5.90;;
6642;SDS011;3357;48.050;7.800;2023-06-10T10:24:59;9.70;;;6.73;;
6642;SDS011;3357;48.050;7.800;2023-06-10T10:27:28;7.43;;;6.57;;
6642;SDS011;3357;48.050;7.800;2023-06-10T10:29:55;6.70;;;6.10;;
6642;SDS011;3357;48.050;7.800;2023-06-10T10:32:29;8.23;;;5.83;;
6642;SDS011;3357;48.050;7.800;2023-06-10T10:37:32;7.03;;;6.30;;
6642;SDS011;3357;48.050;7.800;2023-06-10T10:39:58;7.37;;;5.80;;
6642;SDS011;3357;48.050;7.800;2023-06-10T10:42:24;6.27;;;5.43;;
6642;SDS011;3357;48.050;7.800;2023-06-10T10:44:50;6.70;;;6.10;;
6642;SDS011;3357;48.050;7.800;2023-06-10T10:47:16;6.57;;;5.97;;
6642;SDS011;3357;48.050;7.800;2023-06-10T10:49:45;6.30;;;5.43;;
6642;SDS011;3357;48.050;7.800;2023-06-10T10:52:14;5.97;;;5.10;;
6642;SDS011;3357;48.050;7.800;2023-06-10T10:54:42;8.90;;;5.70;;
6642;SDS011;3357;48.050;7.800;2023-06-10T11:02:31;6.20;;;5.70;;
6642;SDS011;3357;48.050;7.800;2023-06-10T11:04:57;7.53;;;5.60;;
6642;SDS011;3357;48.050;7.800;2023-06-10T11:07:24;5.83;;;4.83;;
6642;SDS011;3357;48.050;7.800;2023-06-10T11:09:59;5.90;;;5.30;;
6642;SDS011;3357;48.050;7.800;2023-06-10T11:15:10;5.47;;;5.10;;
6642;SDS011;3357;48.050;7.800;2023-06-10T11:17:36;5.60;;;5.10;;
6642;SDS011;3357;48.050;7.800;2023-06-10T11:20:01;6.13;;;5.63;;
6642;SDS011;3357;48.050;7.800;2023-06-10T11:22:26;7.00;;;5.73;;
6642;SDS011;3357;48.050;7.800;2023-06-10T11:24:52;5.43;;;5.10;;
6642;SDS011;3357;48.050;7.800;2023-06-10T11:27:22;5.80;;;5.23;;
6642;SDS011;3357;48.050;7.800;2023-06-10T11:30:17;5.60;;;5.10;;
6642;SDS011;3357;48.050;7.800;2023-06-10T11:32:44;5.70;;;5.30;;
6642;SDS011;3357;48.050;7.800;2023-06-10T11:35:10;8.43;;;6.00;;
6642;SDS011;3357;48.050;7.800;2023-06-10T11:37:35;6.13;;;5.63;;
6642;SDS011;3357;48.050;7.800;2023-06-10T11:40:01;5.50;;;5.10;;
6642;SDS011;3357;48.050;7.800;2023-06-10T11:42:27;6.43;;;5.80;;
6642;SDS011;3357;48.050;7.800;2023-06-10T11:44:52;5.57;;;5.10;;
6642;SDS011;3357;48.050;7.800;2023-06-10T11:47:18;5.70;;;5.20;;
6642;SDS011;3357;48.050;7.800;2023-06-10T11:49:45;7.07;;;4.80;;
6642;SDS011;3357;48.050;7.800;2023-06-10T11:52:11;5.67;;;5.03;;
6642;SDS011;3357;48.050;7.800;2023-06-10T11:54:36;5.10;;;4.80;;
6642;SDS011;3357;48.050;7.800;2023-06-10T11:57:02;4.90;;;4.53;;
6642;SDS011;3357;48.050;7.800;2023-06-10T11:59:33;5.93;;;5.23;;
6642;SDS011;3357;48.050;7.800;2023-06-10T12:01:58;5.73;;;5.20;;
6642;SDS011;3357;48.050;7.800;2023-06-10T12:04:23;5.33;;;4.87;;
6642;SDS011;3357;48.050;7.800;2023-06-10T12:06:51;5.07;;;4.73;;
6642;SDS011;3357;48.050;7.800;2023-06-10T12:09:25;5.00;;;4.70;;
6642;SDS011;3357;48.050;7.800;2023-06-10T12:14:49;5.40;;;4.93;;
6642;SDS011;3357;48.050;7.800;2023-06-10T12:17:23;5.03;;;4.63;;
6642;SDS011;3357;48.050;7.800;2023-06-10T12:19:58;4.27;;;3.87;;
6642;SDS011;3357;48.050;7.800;2023-06-10T12:22:24;5.10;;;4.70;;
6642;SDS011;3357;48.050;7.800;2023-06-10T12:25:04;4.87;;;4.47;;
6642;SDS011;3357;48.050;7.800;2023-06-10T12:27:31;4.83;;;4.50;;
6642;SDS011;3357;48.050;7.800;2023-06-10T12:29:59;5.20;;;4.87;;
6642;SDS011;3357;48.050;7.800;2023-06-10T12:32:44;11.60;;;4.70;;
6642;SDS011;3357;48.050;7.800;2023-06-10T12:35:11;5.37;;;4.83;;
6642;SDS011;3357;48.050;7.800;2023-06-10T12:37:38;5.30;;;4.80;;
6642;SDS011;3357;48.050;7.800;2023-06-10T12:40:04;7.37;;;4.97;;
6642;SDS011;3357;48.050;7.800;2023-06-10T12:42:36;4.90;;;4.50;;
6642;SDS011;3357;48.050;7.800;2023-06-10T12:45:03;5.57;;;4.33;;
6642;SDS011;3357;48.050;7.800;2023-06-10T12:47:33;4.30;;;4.00;;
6642;SDS011;3357;48.050;7.800;2023-06-10T12:50:00;4.93;;;4.60;;
6642;SDS011;3357;48.050;7.800;2023-06-10T12:52:25;5.07;;;4.67;;
6642;SDS011;3357;48.050;7.800;2023-06-10T12:54:51;4.80;;;4.40;;
6642;SDS011;3357;48.050;7.800;2023-06-10T12:57:17;5.00;;;4.60;;
6642;SDS011;3357;48.050;7.800;2023-06-10T12:59:42;5.03;;;4.33;;
6642;SDS011;3357;48.050;7.800;2023-06-10T13:02:14;5.23;;;4.77;;
6642;SDS011;3357;48.050;7.800;2023-06-10T13:04:40;4.90;;;4.57;;
6642;SDS011;3357;48.050;7.800;2023-06-10T13:07:05;4.30;;;4.10;;
6642;SDS011;3357;48.050;7.800;2023-06-10T13:09:31;4.20;;;4.00;;
6642;SDS011;3357;48.050;7.800;2023-06-10T13:11:56;5.00;;;3.77;;
6642;SDS011;3357;48.050;7.800;2023-06-10T13:14:21;4.43;;;4.13;;
6642;SDS011;3357;48.050;7.800;2023-06-10T13:16:47;5.30;;;4.30;;
6642;SDS011;3357;48.050;7.800;2023-06-10T13:19:12;4.20;;;4.00;;
6642;SDS011;3357;48.050;7.800;2023-06-10T13:21:37;5.50;;;3.93;;
6642;SDS011;3357;48.050;7.800;2023-06-10T13:24:03;4.90;;;4.50;;
6642;SDS011;3357;48.050;7.800;2023-06-10T13:26:29;4.30;;;4.00;;
6642;SDS011;3357;48.050;7.800;2023-06-10T13:28:54;4.70;;;4.30;;
6642;SDS011;3357;48.050;7.800;2023-06-10T13:31:19;3.93;;;3.53;;
6642;SDS011;3357;48.050;7.800;2023-06-10T13:33:45;5.10;;;4.77;;
6642;SDS011;3357;48.050;7.800;2023-06-10T13:36:12;3.97;;;3.60;;
6642;SDS011;3357;48.050;7.800;2023-06-10T13:38:37;4.80;;;4.50;;
6642;SDS011;3357;48.050;7.800;2023-06-10T13:41:03;4.97;;;4.57;;
6642;SDS011;3357;48.050;7.800;2023-06-10T13:43:28;7.33;;;5.80;;
6642;SDS011;3357;48.050;7.800;2023-06-10T13:45:54;5.77;;;5.30;;
6642;SDS011;3357;48.050;7.800;2023-06-10T13:48:19;6.13;;;5.63;;
6642;SDS011;3357;48.050;7.800;2023-06-10T13:50:46;7.60;;;5.63;;
6642;SDS011;3357;48.050;7.800;2023-06-10T13:53:12;5.57;;;4.83;;
6642;SDS011;3357;48.050;7.800;2023-06-10T13:55:37;17.87;;;5.90;;
6642;SDS011;3357;48.050;7.800;2023-06-10T13:58:02;9.00;;;4.83;;
6642;SDS011;3357;48.050;7.800;2023-06-10T14:00:28;9.33;;;4.80;;
6642;SDS011;3357;48.050;7.800;2023-06-10T14:02:53;6.00;;;5.40;;
6642;SDS011;3357;48.050;7.800;2023-06-10T14:05:19;6.27;;;5.57;;
6642;SDS011;3357;48.050;7.800;2023-06-10T14:07:44;4.70;;;4.30;;
6642;SDS011;3357;48.050;7.800;2023-06-10T14:10:09;5.23;;;4.83;;
6642;SDS011;3357;48.050;7.800;2023-06-10T14:12:35;4.27;;;4.07;;
6642;SDS011;3357;48.050;7.800;2023-06-10T14:15:01;5.03;;;4.63;;
6642;SDS011;3357;48.050;7.800;2023-06-10T14:17:26;4.60;;;4.20;;
6642;SDS011;3357;48.050;7.800;2023-06-10T14:19:51;5.60;;;4.80;;
6642;SDS011;3357;48.050;7.800;2023-06-10T14:22:17;4.93;;;4.53;;
6642;SDS011;3357;48.050;7.800;2023-06-10T14:24:42;4.97;;;4.60;;
6642;SDS011;3357;48.050;7.800;2023-06-10T14:27:07;4.80;;;4.40;;
6642;SDS011;3357;48.050;7.800;2023-06-10T14:29:32;5.20;;;4.80;;
6642;SDS011;3357;48.050;7.800;2023-06-10T14:31:58;4.93;;;4.30;;
6642;SDS011;3357;48.050;7.800;2023-06-10T14:34:24;9.47;;;4.30;;
6642;SDS011;3357;48.050;7.800;2023-06-10T14:36:53;4.60;;;4.20;;
6642;SDS011;3357;48.050;7.800;2023-06-10T14:39:19;4.63;;;4.33;;
6642;SDS011;3357;48.050;7.800;2023-06-10T14:41:44;5.83;;;3.93;;
6642;SDS011;3357;48.050;7.800;2023-06-10T14:44:10;5.23;;;4.93;;
6642;SDS011;3357;48.050;7.800;2023-06-10T14:46:35;6.70;;;6.10;;
6642;SDS011;3357;48.050;7.800;2023-06-10T14:49:00;4.53;;;4.13;;
6642;SDS011;3357;48.050;7.800;2023-06-10T14:51:27;4.83;;;4.53;;
6642;SDS011;3357;48.050;7.800;2023-06-10T14:53:52;4.43;;;4.10;;
6642;SDS011;3357;48.050;7.800;2023-06-10T14:56:17;4.20;;;3.90;;
6642;SDS011;3357;48.050;7.800;2023-06-10T14:58:43;3.97;;;3.77;;
6642;SDS011;3357;48.050;7.800;2023-06-10T15:01:08;5.20;;;4.67;;
6642;SDS011;3357;48.050;7.800;2023-06-10T15:03:33;4.57;;;4.23;;
6642;SDS011;3357;48.050;7.800;2023-06-10T15:05:59;7.43;;;4.67;;
6642;SDS011;3357;48.050;7.800;2023-06-10T15:08:25;4.60;;;4.30;;
6642;SDS011;3357;48.050;7.800;2023-06-10T15:10:52;6.00;;;4.13;;
6642;SDS011;3357;48.050;7.800;2023-06-10T15:13:18;11.23;;;3.93;;
6642;SDS011;3357;48.050;7.800;2023-06-10T15:15:43;4.47;;;4.17;;
6642;SDS011;3357;48.050;7.800;2023-06-10T15:18:08;4.97;;;4.57;;
6642;SDS011;3357;48.050;7.800;2023-06-10T15:20:34;3.90;;;3.60;;
6642;SDS011;3357;48.050;7.800;2023-06-10T15:22:59;5.63;;;5.23;;
6642;SDS011;3357;48.050;7.800;2023-06-10T15:25:25;5.70;;;4.83;;
6642;SDS011;3357;48.050;7.800;2023-06-10T15:27:51;5.43;;;5.00;;
6642;SDS011;3357;48.050;7.800;2023-06-10T15:30:17;5.50;;;5.10;;